sensor_id;sensor_type;location;lat;lon;timestamp;pressure;altitude;pressure_sealevel;temperature;humidity
27643;BME280;15053;48.618;10.024;2022-07-01T00:00:33;94224.56;;;17.07;95.19
27643;BME280;15053;48.618;10.024;2022-07-01T00:03:00;94208.97;;;17.02;95.04
27643;BME280;15053;48.618;10.024;2022-07-01T00:05:27;94191.53;;;16.98;94.65
27643;BME280;15053;48.618;10.024;2022-07-01T00:07:54;94177.72;;;16.89;94.16
27643;BME280;15053;48.618;10.024;2022-07-01T00:10:20;94164.97;;;16.79;94.41
27643;BME280;15053;48.618;10.024;2022-07-01T00:12:47;94145.38;;;16.76;94.40
27643;BME280;15053;48.618;10.024;2022-07-01T00:15:14;94131.66;;;16.71;93.89
27643;BME280;15053;48.618;10.024;2022-07-01T00:17:41;94117.75;;;16.58;94.02
27643;BME280;15053;48.618;10.024;2022-07-01T00:20:09;94117.81;;;16.49;93.77
27643;BME280;15053;48.618;10.024;2022-07-01T00:22:36;94113.28;;;16.38;93.92
27643;BME280;15053;48.618;10.024;2022-07-01T00:25:03;94107.69;;;16.27;94.13
27643;BME280;15053;48.618;10.024;2022-07-01T00:27:29;94112.06;;;16.23;93.98
27643;BME280;15053;48.618;10.024;2022-07-01T00:29:56;94118.91;;;16.16;93.95
27643;BME280;15053;48.618;10.024;2022-07-01T00:32:23;94122.84;;;16.10;94.25
27643;BME280;15053;48.618;10.024;2022-07-01T00:34:49;94122.94;;;16.01;94.34
27643;BME280;15053;48.618;10.024;2022-07-01T00:37:16;94126.84;;;15.95;94.32
27643;BME280;15053;48.618;10.024;2022-07-01T00:39:43;94128.91;;;15.89;94.73
27643;BME280;15053;48.618;10.024;2022-07-01T00:42:09;94126.34;;;15.81;95.12
27643;BME280;15053;48.618;10.024;2022-07-01T00:44:36;94132.19;;;15.86;95.41
27643;BME280;15053;48.618;10.024;2022-07-01T00:47:08;94128.91;;;15.89;95.59
27643;BME280;15053;48.618;10.024;2022-07-01T00:49:35;94132.97;;;15.87;95.08
27643;BME280;15053;48.618;10.024;2022-07-01T00:52:04;94134.81;;;15.86;94.71
27643;BME280;15053;48.618;10.024;2022-07-01T00:54:32;94136.22;;;15.84;94.23
27643;BME280;15053;48.618;10.024;2022-07-01T00:57:06;94150.28;;;15.79;93.98
27643;BME280;15053;48.618;10.024;2022-07-01T00:59:34;94166.19;;;15.83;93.58
27643;BME280;15053;48.618;10.024;2022-07-01T01:02:03;94162.69;;;15.79;93.65
27643;BME280;15053;48.618;10.024;2022-07-01T01:04:31;94164.16;;;15.68;92.86
27643;BME280;15053;48.618;10.024;2022-07-01T01:07:00;94173.59;;;15.60;93.34
27643;BME280;15053;48.618;10.024;2022-07-01T01:09:28;94202.69;;;15.55;93.39
27643;BME280;15053;48.618;10.024;2022-07-01T01:11:55;94212.31;;;15.43;93.54
27643;BME280;15053;48.618;10.024;2022-07-01T01:14:22;94211.28;;;15.35;93.87
27643;BME280;15053;48.618;10.024;2022-07-01T01:16:49;94214.84;;;15.30;94.23
27643;BME280;15053;48.618;10.024;2022-07-01T01:19:15;94236.16;;;15.29;93.27
27643;BME280;15053;48.618;10.024;2022-07-01T01:21:42;94242.38;;;15.16;92.97
27643;BME280;15053;48.618;10.024;2022-07-01T01:24:09;94244.56;;;15.05;92.95
27643;BME280;15053;48.618;10.024;2022-07-01T01:26:35;94237.97;;;14.99;93.18
27643;BME280;15053;48.618;10.024;2022-07-01T01:29:02;94235.97;;;14.96;93.19
27643;BME280;15053;48.618;10.024;2022-07-01T01:31:30;94234.88;;;14.97;93.40
27643;BME280;15053;48.618;10.024;2022-07-01T01:33:59;94239.06;;;14.98;93.54
27643;BME280;15053;48.618;10.024;2022-07-01T01:36:27;94223.94;;;14.95;93.55
27643;BME280;15053;48.618;10.024;2022-07-01T01:38:53;94215.00;;;14.96;93.95
27643;BME280;15053;48.618;10.024;2022-07-01T01:41:23;94209.41;;;14.98;93.59
27643;BME280;15053;48.618;10.024;2022-07-01T01:43:50;94193.38;;;14.99;94.04
27643;BME280;15053;48.618;10.024;2022-07-01T01:46:17;94185.63;;;15.03;93.43
27643;BME280;15053;48.618;10.024;2022-07-01T01:48:44;94184.56;;;15.04;93.52
27643;BME280;15053;48.618;10.024;2022-07-01T01:51:10;94193.22;;;15.04;93.17
27643;BME280;15053;48.618;10.024;2022-07-01T01:53:37;94172.84;;;15.01;93.07
27643;BME280;15053;48.618;10.024;2022-07-01T01:56:04;94182.09;;;15.07;92.93
27643;BME280;15053;48.618;10.024;2022-07-01T01:58:31;94185.16;;;15.09;92.97
27643;BME280;15053;48.618;10.024;2022-07-01T02:00:58;94179.28;;;15.12;92.76
27643;BME280;15053;48.618;10.024;2022-07-01T02:03:24;94182.50;;;15.18;93.32
27643;BME280;15053;48.618;10.024;2022-07-01T02:05:51;94194.97;;;15.21;92.67
27643;BME280;15053;48.618;10.024;2022-07-01T02:08:18;94211.03;;;15.19;92.45
27643;BME280;15053;48.618;10.024;2022-07-01T02:10:44;94204.25;;;15.18;92.24
27643;BME280;15053;48.618;10.024;2022-07-01T02:13:11;94216.91;;;15.16;92.21
27643;BME280;15053;48.618;10.024;2022-07-01T02:15:38;94210.75;;;15.12;92.05
27643;BME280;15053;48.618;10.024;2022-07-01T02:18:06;94229.16;;;15.04;91.76
27643;BME280;15053;48.618;10.024;2022-07-01T02:20:33;94226.13;;;14.93;91.19
27643;BME280;15053;48.618;10.024;2022-07-01T02:23:00;94228.44;;;14.86;91.77
27643;BME280;15053;48.618;10.024;2022-07-01T02:25:27;94230.00;;;14.78;91.66
27643;BME280;15053;48.618;10.024;2022-07-01T02:27:53;94233.13;;;14.72;91.69
27643;BME280;15053;48.618;10.024;2022-07-01T02:30:20;94242.69;;;14.68;91.33
27643;BME280;15053;48.618;10.024;2022-07-01T02:32:46;94244.69;;;14.62;91.60
27643;BME280;15053;48.618;10.024;2022-07-01T02:35:13;94264.16;;;14.53;91.09
27643;BME280;15053;48.618;10.024;2022-07-01T02:37:40;94260.94;;;14.39;91.55
27643;BME280;15053;48.618;10.024;2022-07-01T02:40:08;94254.56;;;14.31;91.24
27643;BME280;15053;48.618;10.024;2022-07-01T02:42:35;94256.28;;;14.18;91.19
27643;BME280;15053;48.618;10.024;2022-07-01T02:45:04;94248.56;;;14.13;92.14
27643;BME280;15053;48.618;10.024;2022-07-01T02:47:32;94245.50;;;14.11;91.96
27643;BME280;15053;48.618;10.024;2022-07-01T02:49:59;94241.00;;;14.12;91.97
27643;BME280;15053;48.618;10.024;2022-07-01T02:52:27;94248.72;;;14.08;91.94
27643;BME280;15053;48.618;10.024;2022-07-01T02:54:54;94245.19;;;14.04;92.45
27643;BME280;15053;48.618;10.024;2022-07-01T02:57:21;94251.03;;;14.01;92.20
27643;BME280;15053;48.618;10.024;2022-07-01T02:59:48;94253.97;;;14.00;92.59
27643;BME280;15053;48.618;10.024;2022-07-01T03:02:14;94264.28;;;13.96;92.47
27643;BME280;15053;48.618;10.024;2022-07-01T03:04:41;94264.09;;;13.93;92.33
27643;BME280;15053;48.618;10.024;2022-07-01T03:07:08;94263.19;;;13.89;92.51
27643;BME280;15053;48.618;10.024;2022-07-01T03:09:35;94263.97;;;13.89;93.00
27643;BME280;15053;48.618;10.024;2022-07-01T03:12:02;94261.81;;;13.91;92.73
27643;BME280;15053;48.618;10.024;2022-07-01T03:14:49;94272.28;;;13.91;93.45
27643;BME280;15053;48.618;10.024;2022-07-01T03:17:15;94269.66;;;13.91;92.72
27643;BME280;15053;48.618;10.024;2022-07-01T03:19:42;94270.13;;;13.93;92.92
27643;BME280;15053;48.618;10.024;2022-07-01T03:22:09;94269.34;;;14.01;93.57
27643;BME280;15053;48.618;10.024;2022-07-01T03:24:36;94276.59;;;14.04;92.89
27643;BME280;15053;48.618;10.024;2022-07-01T03:27:03;94268.13;;;14.07;93.14
27643;BME280;15053;48.618;10.024;2022-07-01T03:29:30;94264.91;;;14.10;93.10
27643;BME280;15053;48.618;10.024;2022-07-01T03:31:56;94261.06;;;14.08;92.75
27643;BME280;15053;48.618;10.024;2022-07-01T03:34:23;94264.44;;;14.08;92.51
27643;BME280;15053;48.618;10.024;2022-07-01T03:36:50;94252.88;;;14.09;92.25
27643;BME280;15053;48.618;10.024;2022-07-01T03:39:16;94255.03;;;14.16;92.59
27643;BME280;15053;48.618;10.024;2022-07-01T03:41:43;94256.88;;;14.15;92.08
27643;BME280;15053;48.618;10.024;2022-07-01T03:44:10;94260.44;;;14.11;91.97
27643;BME280;15053;48.618;10.024;2022-07-01T03:46:37;94287.41;;;14.11;91.71
27643;BME280;15053;48.618;10.024;2022-07-01T03:49:03;94291.09;;;14.10;91.50
27643;BME280;15053;48.618;10.024;2022-07-01T03:51:30;94314.22;;;14.08;90.73
27643;BME280;15053;48.618;10.024;2022-07-01T03:53:57;94312.97;;;13.97;89.65
27643;BME280;15053;48.618;10.024;2022-07-01T03:56:42;94307.38;;;13.90;89.69
27643;BME280;15053;48.618;10.024;2022-07-01T03:59:09;94308.31;;;13.86;89.74
27643;BME280;15053;48.618;10.024;2022-07-01T04:01:35;94308.47;;;13.81;90.30
27643;BME280;15053;48.618;10.024;2022-07-01T04:04:02;94289.97;;;13.77;90.10
27643;BME280;15053;48.618;10.024;2022-07-01T04:06:29;94287.34;;;13.77;90.82
27643;BME280;15053;48.618;10.024;2022-07-01T04:08:56;94307.06;;;13.75;91.13
27643;BME280;15053;48.618;10.024;2022-07-01T04:11:23;94308.25;;;13.69;90.87
27643;BME280;15053;48.618;10.024;2022-07-01T04:13:50;94321.34;;;13.69;90.76
27643;BME280;15053;48.618;10.024;2022-07-01T04:16:17;94316.72;;;13.66;91.07
27643;BME280;15053;48.618;10.024;2022-07-01T04:18:45;94312.88;;;13.63;90.88
27643;BME280;15053;48.618;10.024;2022-07-01T04:21:12;94310.56;;;13.62;91.22
27643;BME280;15053;48.618;10.024;2022-07-01T04:24:03;94306.25;;;13.66;91.25
27643;BME280;15053;48.618;10.024;2022-07-01T04:26:29;94307.03;;;13.66;91.13
27643;BME280;15053;48.618;10.024;2022-07-01T04:29:04;94310.75;;;13.65;90.91
27643;BME280;15053;48.618;10.024;2022-07-01T04:31:31;94327.34;;;13.69;91.07
27643;BME280;15053;48.618;10.024;2022-07-01T04:33:58;94355.09;;;13.70;90.62
27643;BME280;15053;48.618;10.024;2022-07-01T04:36:25;94371.25;;;13.72;90.39
27643;BME280;15053;48.618;10.024;2022-07-01T04:38:52;94380.66;;;13.73;90.62
27643;BME280;15053;48.618;10.024;2022-07-01T04:41:19;94394.81;;;13.72;90.11
27643;BME280;15053;48.618;10.024;2022-07-01T04:44:04;94402.50;;;13.69;90.60
27643;BME280;15053;48.618;10.024;2022-07-01T04:46:31;94401.59;;;13.73;90.17
27643;BME280;15053;48.618;10.024;2022-07-01T04:48:58;94393.59;;;13.78;90.31
27643;BME280;15053;48.618;10.024;2022-07-01T04:51:25;94390.84;;;13.83;90.85
27643;BME280;15053;48.618;10.024;2022-07-01T04:53:51;94395.47;;;13.86;90.46
27643;BME280;15053;48.618;10.024;2022-07-01T04:56:18;94397.78;;;13.88;90.47
27643;BME280;15053;48.618;10.024;2022-07-01T04:58:45;94386.53;;;13.87;90.25
27643;BME280;15053;48.618;10.024;2022-07-01T05:01:11;94388.69;;;13.85;90.39
27643;BME280;15053;48.618;10.024;2022-07-01T05:03:38;94378.22;;;13.85;90.77
27643;BME280;15053;48.618;10.024;2022-07-01T05:06:05;94375.47;;;13.90;91.10
27643;BME280;15053;48.618;10.024;2022-07-01T05:08:32;94376.41;;;13.94;90.73
27643;BME280;15053;48.618;10.024;2022-07-01T05:10:59;94371.50;;;14.01;91.30
27643;BME280;15053;48.618;10.024;2022-07-01T05:13:25;94371.34;;;14.06;91.07
27643;BME280;15053;48.618;10.024;2022-07-01T05:15:52;94373.34;;;14.09;90.76
27643;BME280;15053;48.618;10.024;2022-07-01T05:18:19;94369.22;;;14.08;89.96
27643;BME280;15053;48.618;10.024;2022-07-01T05:21:04;94391.84;;;14.04;89.47
27643;BME280;15053;48.618;10.024;2022-07-01T05:23:49;94410.91;;;13.96;88.84
27643;BME280;15053;48.618;10.024;2022-07-01T05:26:16;94417.84;;;13.92;89.54
27643;BME280;15053;48.618;10.024;2022-07-01T05:28:44;94398.56;;;13.88;89.14
27643;BME280;15053;48.618;10.024;2022-07-01T05:31:14;94403.03;;;13.88;89.38
27643;BME280;15053;48.618;10.024;2022-07-01T05:33:41;94410.09;;;13.87;89.95
27643;BME280;15053;48.618;10.024;2022-07-01T05:36:07;94409.03;;;13.88;89.63
27643;BME280;15053;48.618;10.024;2022-07-01T05:38:34;94411.38;;;13.90;89.78
27643;BME280;15053;48.618;10.024;2022-07-01T05:41:01;94419.50;;;13.88;89.76
27643;BME280;15053;48.618;10.024;2022-07-01T05:43:27;94422.13;;;13.88;89.73
27643;BME280;15053;48.618;10.024;2022-07-01T05:45:55;94415.97;;;13.93;90.22
27643;BME280;15053;48.618;10.024;2022-07-01T05:48:22;94413.66;;;13.91;90.23
27643;BME280;15053;48.618;10.024;2022-07-01T05:50:52;94410.59;;;13.89;90.17
27643;BME280;15053;48.618;10.024;2022-07-01T05:53:19;94412.59;;;13.92;90.66
27643;BME280;15053;48.618;10.024;2022-07-01T05:55:46;94413.06;;;13.94;89.82
27643;BME280;15053;48.618;10.024;2022-07-01T05:58:13;94409.84;;;13.97;89.70
27643;BME280;15053;48.618;10.024;2022-07-01T06:00:41;94412.59;;;14.01;89.92
27643;BME280;15053;48.618;10.024;2022-07-01T06:03:12;94402.31;;;14.04;90.01
27643;BME280;15053;48.618;10.024;2022-07-01T06:05:39;94403.53;;;14.07;90.14
27643;BME280;15053;48.618;10.024;2022-07-01T06:08:06;94415.22;;;14.01;89.84
27643;BME280;15053;48.618;10.024;2022-07-01T06:10:34;94408.75;;;13.98;90.23
27643;BME280;15053;48.618;10.024;2022-07-01T06:13:02;94409.84;;;13.97;90.11
27643;BME280;15053;48.618;10.024;2022-07-01T06:15:29;94402.78;;;13.98;90.07
27643;BME280;15053;48.618;10.024;2022-07-01T06:17:56;94406.13;;;13.98;90.10
27643;BME280;15053;48.618;10.024;2022-07-01T06:20:22;94408.28;;;13.96;90.36
27643;BME280;15053;48.618;10.024;2022-07-01T06:22:49;94409.22;;;13.92;90.35
27643;BME280;15053;48.618;10.024;2022-07-01T06:25:16;94406.59;;;13.92;90.60
27643;BME280;15053;48.618;10.024;2022-07-01T06:27:43;94413.50;;;13.88;90.65
27643;BME280;15053;48.618;10.024;2022-07-01T06:30:12;94438.63;;;13.89;90.89
27643;BME280;15053;48.618;10.024;2022-07-01T06:32:39;94444.44;;;13.86;91.04
27643;BME280;15053;48.618;10.024;2022-07-01T06:35:06;94432.28;;;13.81;90.93
27643;BME280;15053;48.618;10.024;2022-07-01T06:37:34;94429.34;;;13.83;90.67
27643;BME280;15053;48.618;10.024;2022-07-01T06:40:06;94430.41;;;13.82;91.04
27643;BME280;15053;48.618;10.024;2022-07-01T06:42:33;94440.88;;;13.82;91.02
27643;BME280;15053;48.618;10.024;2022-07-01T06:45:00;94449.34;;;13.79;90.65
27643;BME280;15053;48.618;10.024;2022-07-01T06:47:27;94462.09;;;13.72;90.41
27643;BME280;15053;48.618;10.024;2022-07-01T06:49:54;94460.38;;;13.67;90.63
27643;BME280;15053;48.618;10.024;2022-07-01T06:52:24;94460.97;;;13.64;91.16
27643;BME280;15053;48.618;10.024;2022-07-01T06:54:51;94469.91;;;13.63;91.45
27643;BME280;15053;48.618;10.024;2022-07-01T06:57:18;94479.31;;;13.64;91.34
27643;BME280;15053;48.618;10.024;2022-07-01T06:59:44;94485.59;;;13.63;91.38
27643;BME280;15053;48.618;10.024;2022-07-01T07:02:11;94487.16;;;13.64;91.37
27643;BME280;15053;48.618;10.024;2022-07-01T07:04:37;94489.16;;;13.67;91.53
27643;BME280;15053;48.618;10.024;2022-07-01T07:07:24;94479.34;;;13.73;91.19
27643;BME280;15053;48.618;10.024;2022-07-01T07:09:51;94481.66;;;13.74;91.05
27643;BME280;15053;48.618;10.024;2022-07-01T07:12:17;94480.78;;;13.79;91.25
27643;BME280;15053;48.618;10.024;2022-07-01T07:14:44;94487.25;;;13.81;91.26
27643;BME280;15053;48.618;10.024;2022-07-01T07:17:11;94489.88;;;13.81;91.15
27643;BME280;15053;48.618;10.024;2022-07-01T07:19:37;94496.94;;;13.81;91.43
27643;BME280;15053;48.618;10.024;2022-07-01T07:22:04;94511.56;;;13.82;91.43
27643;BME280;15053;48.618;10.024;2022-07-01T07:24:31;94513.13;;;13.83;91.25
27643;BME280;15053;48.618;10.024;2022-07-01T07:26:57;94521.94;;;13.87;91.00
27643;BME280;15053;48.618;10.024;2022-07-01T07:29:24;94535.66;;;13.92;90.95
27643;BME280;15053;48.618;10.024;2022-07-01T07:31:50;94535.19;;;13.90;91.07
27643;BME280;15053;48.618;10.024;2022-07-01T07:34:17;94531.97;;;13.93;91.08
27643;BME280;15053;48.618;10.024;2022-07-01T07:36:43;94524.28;;;13.97;90.43
27643;BME280;15053;48.618;10.024;2022-07-01T07:39:10;94512.91;;;14.01;90.19
27643;BME280;15053;48.618;10.024;2022-07-01T07:41:37;94503.84;;;14.07;90.40
27643;BME280;15053;48.618;10.024;2022-07-01T07:44:04;94513.31;;;14.17;90.34
27643;BME280;15053;48.618;10.024;2022-07-01T07:46:30;94510.53;;;14.22;90.60
27643;BME280;15053;48.618;10.024;2022-07-01T07:48:57;94507.47;;;14.29;90.53
27643;BME280;15053;48.618;10.024;2022-07-01T07:51:24;94519.84;;;14.37;91.03
27643;BME280;15053;48.618;10.024;2022-07-01T07:53:52;94518.66;;;14.43;90.34
27643;BME280;15053;48.618;10.024;2022-07-01T07:56:19;94520.66;;;14.46;90.47
27643;BME280;15053;48.618;10.024;2022-07-01T07:58:45;94535.94;;;14.44;90.17
27643;BME280;15053;48.618;10.024;2022-07-01T08:01:12;94528.19;;;14.39;90.15
27643;BME280;15053;48.618;10.024;2022-07-01T08:03:38;94533.44;;;14.39;89.60
27643;BME280;15053;48.618;10.024;2022-07-01T08:06:05;94540.06;;;14.36;89.54
27643;BME280;15053;48.618;10.024;2022-07-01T08:08:32;94541.91;;;14.36;89.85
27643;BME280;15053;48.618;10.024;2022-07-01T08:10:59;94552.00;;;14.29;89.64
27643;BME280;15053;48.618;10.024;2022-07-01T08:13:26;94552.59;;;14.26;89.50
27643;BME280;15053;48.618;10.024;2022-07-01T08:15:52;94538.56;;;14.22;89.61
27643;BME280;15053;48.618;10.024;2022-07-01T08:18:19;94549.38;;;14.20;89.60
27643;BME280;15053;48.618;10.024;2022-07-01T08:20:46;94537.03;;;14.20;89.81
27643;BME280;15053;48.618;10.024;2022-07-01T08:23:13;94528.09;;;14.22;89.86
27643;BME280;15053;48.618;10.024;2022-07-01T08:25:40;94528.88;;;14.22;89.84
27643;BME280;15053;48.618;10.024;2022-07-01T08:28:06;94540.72;;;14.19;89.90
27643;BME280;15053;48.618;10.024;2022-07-01T08:30:33;94540.41;;;14.21;90.05
27643;BME280;15053;48.618;10.024;2022-07-01T08:33:00;94548.09;;;14.17;89.94
27643;BME280;15053;48.618;10.024;2022-07-01T08:35:28;94543.91;;;14.08;90.21
27643;BME280;15053;48.618;10.024;2022-07-01T08:37:56;94553.78;;;14.11;89.85
27643;BME280;15053;48.618;10.024;2022-07-01T08:40:30;94564.56;;;14.09;89.67
27643;BME280;15053;48.618;10.024;2022-07-01T08:42:59;94561.78;;;14.06;89.48
27643;BME280;15053;48.618;10.024;2022-07-01T08:45:27;94560.69;;;14.07;90.15
27643;BME280;15053;48.618;10.024;2022-07-01T08:47:56;94557.28;;;14.06;89.72
27643;BME280;15053;48.618;10.024;2022-07-01T08:50:37;94549.63;;;14.10;90.40
27643;BME280;15053;48.618;10.024;2022-07-01T08:53:06;94548.09;;;14.09;89.37
27643;BME280;15053;48.618;10.024;2022-07-01T08:55:33;94536.84;;;14.08;89.78
27643;BME280;15053;48.618;10.024;2022-07-01T08:58:21;94537.94;;;14.16;89.94
27643;BME280;15053;48.618;10.024;2022-07-01T09:00:48;94537.03;;;14.20;90.31
27643;BME280;15053;48.618;10.024;2022-07-01T09:03:15;94528.56;;;14.24;90.21
27643;BME280;15053;48.618;10.024;2022-07-01T09:05:49;94529.97;;;14.30;90.48
27643;BME280;15053;48.618;10.024;2022-07-01T09:08:16;94531.53;;;14.31;90.30
27643;BME280;15053;48.618;10.024;2022-07-01T09:10:43;94550.84;;;14.35;89.81
27643;BME280;15053;48.618;10.024;2022-07-01T09:13:12;94565.19;;;14.37;90.11
27643;BME280;15053;48.618;10.024;2022-07-01T09:15:41;94571.66;;;14.40;90.16
27643;BME280;15053;48.618;10.024;2022-07-01T09:18:13;94574.41;;;14.35;89.21
27643;BME280;15053;48.618;10.024;2022-07-01T09:20:42;94579.44;;;14.31;88.71
27643;BME280;15053;48.618;10.024;2022-07-01T09:25:41;94574.53;;;14.30;89.32
27643;BME280;15053;48.618;10.024;2022-07-01T09:28:24;94591.63;;;14.27;88.78
27643;BME280;15053;48.618;10.024;2022-07-01T09:30:54;94598.69;;;14.27;87.75
27643;BME280;15053;48.618;10.024;2022-07-01T09:33:23;94606.22;;;14.19;87.64
27643;BME280;15053;48.618;10.024;2022-07-01T09:35:51;94599.56;;;14.13;87.56
27643;BME280;15053;48.618;10.024;2022-07-01T09:38:21;94606.22;;;14.19;88.12
27643;BME280;15053;48.618;10.024;2022-07-01T09:41:03;94612.53;;;14.18;88.22
27643;BME280;15053;48.618;10.024;2022-07-01T09:43:32;94611.16;;;14.21;88.25
27643;BME280;15053;48.618;10.024;2022-07-01T09:46:09;94608.84;;;14.19;88.24
27643;BME280;15053;48.618;10.024;2022-07-01T09:51:05;94613.97;;;14.25;88.68
27643;BME280;15053;48.618;10.024;2022-07-01T09:53:39;94614.88;;;14.20;89.06
27643;BME280;15053;48.618;10.024;2022-07-01T09:56:06;94613.00;;;14.20;89.58
27643;BME280;15053;48.618;10.024;2022-07-01T09:58:33;94613.59;;;14.17;89.71
27643;BME280;15053;48.618;10.024;2022-07-01T10:01:02;94616.56;;;14.25;90.08
27643;BME280;15053;48.618;10.024;2022-07-01T10:03:31;94613.63;;;14.26;89.69
27643;BME280;15053;48.618;10.024;2022-07-01T10:06:34;94603.03;;;14.31;89.78
27643;BME280;15053;48.618;10.024;2022-07-01T10:09:26;94605.41;;;14.33;89.82
27643;BME280;15053;48.618;10.024;2022-07-01T10:14:29;94604.97;;;14.39;89.86
27643;BME280;15053;48.618;10.024;2022-07-01T10:16:56;94615.31;;;14.44;89.85
27643;BME280;15053;48.618;10.024;2022-07-01T10:19:24;94618.41;;;14.46;89.94
27643;BME280;15053;48.618;10.024;2022-07-01T10:22:00;94627.66;;;14.44;89.48
27643;BME280;15053;48.618;10.024;2022-07-01T10:24:27;94631.34;;;14.43;89.90
27643;BME280;15053;48.618;10.024;2022-07-01T10:26:59;94633.34;;;14.46;89.12
27643;BME280;15053;48.618;10.024;2022-07-01T10:29:35;94632.88;;;14.44;89.47
27643;BME280;15053;48.618;10.024;2022-07-01T10:35:09;94641.16;;;14.37;89.23
27643;BME280;15053;48.618;10.024;2022-07-01T10:37:59;94646.13;;;14.39;88.72
27643;BME280;15053;48.618;10.024;2022-07-01T10:40:42;94632.72;;;14.40;89.12
27643;BME280;15053;48.618;10.024;2022-07-01T10:43:33;94642.41;;;14.40;89.31
27643;BME280;15053;48.618;10.024;2022-07-01T10:46:00;94656.75;;;14.42;89.29
27643;BME280;15053;48.618;10.024;2022-07-01T10:48:30;94656.28;;;14.40;89.01
27643;BME280;15053;48.618;10.024;2022-07-01T10:50:58;94668.47;;;14.36;89.48
27643;BME280;15053;48.618;10.024;2022-07-01T10:53:35;94653.22;;;14.38;89.21
27643;BME280;15053;48.618;10.024;2022-07-01T10:56:15;94641.16;;;14.37;89.38
27643;BME280;15053;48.618;10.024;2022-07-01T10:58:41;94650.88;;;14.37;88.69
27643;BME280;15053;48.618;10.024;2022-07-01T11:01:09;94648.94;;;14.29;88.63
27643;BME280;15053;48.618;10.024;2022-07-01T11:03:37;94665.25;;;14.26;88.45
27643;BME280;15053;48.618;10.024;2022-07-01T11:06:07;94649.66;;;14.20;88.76
27643;BME280;15053;48.618;10.024;2022-07-01T11:08:34;94623.97;;;14.23;88.62
27643;BME280;15053;48.618;10.024;2022-07-01T11:11:02;94673.63;;;14.28;88.55
27643;BME280;15053;48.618;10.024;2022-07-01T11:13:31;94649.53;;;14.26;88.43
27643;BME280;15053;48.618;10.024;2022-07-01T11:15:59;94641.75;;;14.34;89.13
27643;BME280;15053;48.618;10.024;2022-07-01T11:18:27;94651.25;;;14.44;89.07
27643;BME280;15053;48.618;10.024;2022-07-01T11:21:03;94666.50;;;14.50;89.21
27643;BME280;15053;48.618;10.024;2022-07-01T11:23:30;94665.16;;;14.53;88.82
27643;BME280;15053;48.618;10.024;2022-07-01T11:26:00;94655.31;;;14.58;88.69
27643;BME280;15053;48.618;10.024;2022-07-01T11:28:27;94656.91;;;14.68;88.55
27643;BME280;15053;48.618;10.024;2022-07-01T11:31:00;94626.00;;;14.96;87.71
27643;BME280;15053;48.618;10.024;2022-07-01T11:33:27;94633.16;;;15.12;87.15
27643;BME280;15053;48.618;10.024;2022-07-01T11:35:54;94648.13;;;15.20;86.44
27643;BME280;15053;48.618;10.024;2022-07-01T11:38:44;94665.25;;;15.18;86.14
27643;BME280;15053;48.618;10.024;2022-07-01T11:41:29;94673.28;;;15.13;86.13
27643;BME280;15053;48.618;10.024;2022-07-01T11:43:56;94673.09;;;15.09;85.71
27643;BME280;15053;48.618;10.024;2022-07-01T11:46:23;94673.69;;;14.98;85.24
27643;BME280;15053;48.618;10.024;2022-07-01T11:48:51;94678.28;;;14.92;85.39
27643;BME280;15053;48.618;10.024;2022-07-01T11:51:23;94678.41;;;14.87;85.59
27643;BME280;15053;48.618;10.024;2022-07-01T11:53:52;94679.75;;;14.76;85.04
27643;BME280;15053;48.618;10.024;2022-07-01T11:56:35;94695.50;;;14.76;85.75
27643;BME280;15053;48.618;10.024;2022-07-01T11:59:05;94690.97;;;14.68;85.21
27643;BME280;15053;48.618;10.024;2022-07-01T12:01:36;94692.03;;;14.67;85.62
27643;BME280;15053;48.618;10.024;2022-07-01T12:04:06;94684.31;;;14.62;86.00
27643;BME280;15053;48.618;10.024;2022-07-01T12:06:34;94674.44;;;14.59;85.78
27643;BME280;15053;48.618;10.024;2022-07-01T12:09:02;94672.41;;;14.56;86.27
27643;BME280;15053;48.618;10.024;2022-07-01T12:11:29;94687.19;;;14.52;85.67
27643;BME280;15053;48.618;10.024;2022-07-01T12:14:04;94685.78;;;14.46;86.39
27643;BME280;15053;48.618;10.024;2022-07-01T12:16:38;94693.94;;;14.44;86.04
27643;BME280;15053;48.618;10.024;2022-07-01T12:19:05;94705.22;;;14.45;86.50
27643;BME280;15053;48.618;10.024;2022-07-01T12:21:50;94722.47;;;14.46;86.50
27643;BME280;15053;48.618;10.024;2022-07-01T12:24:18;94719.06;;;14.45;86.46
27643;BME280;15053;48.618;10.024;2022-07-01T12:29:26;94724.03;;;14.47;86.67
27643;BME280;15053;48.618;10.024;2022-07-01T12:32:01;94729.66;;;14.40;86.79
27643;BME280;15053;48.618;10.024;2022-07-01T12:37:08;94708.56;;;14.45;87.71
27643;BME280;15053;48.618;10.024;2022-07-01T12:39:56;94712.94;;;14.50;87.56
27643;BME280;15053;48.618;10.024;2022-07-01T12:44:58;94725.81;;;14.38;87.42
27643;BME280;15053;48.618;10.024;2022-07-01T12:47:34;94706.41;;;14.39;87.69
27643;BME280;15053;48.618;10.024;2022-07-01T12:52:38;94679.34;;;14.52;87.63
27643;BME280;15053;48.618;10.024;2022-07-01T12:55:15;94700.81;;;14.62;87.38
27643;BME280;15053;48.618;10.024;2022-07-01T12:57:42;94706.44;;;14.69;87.04
27643;BME280;15053;48.618;10.024;2022-07-01T13:00:09;94694.56;;;14.72;86.39
27643;BME280;15053;48.618;10.024;2022-07-01T13:02:36;94713.66;;;14.72;85.91
27643;BME280;15053;48.618;10.024;2022-07-01T13:05:02;94734.50;;;14.69;85.42
27643;BME280;15053;48.618;10.024;2022-07-01T13:07:29;94745.38;;;14.62;85.44
27643;BME280;15053;48.618;10.024;2022-07-01T13:09:56;94735.03;;;14.57;84.85
27643;BME280;15053;48.618;10.024;2022-07-01T13:12:23;94733.66;;;14.60;84.70
27643;BME280;15053;48.618;10.024;2022-07-01T13:14:49;94745.13;;;14.72;84.21
27643;BME280;15053;48.618;10.024;2022-07-01T13:17:16;94739.06;;;14.86;84.04
27643;BME280;15053;48.618;10.024;2022-07-01T13:19:43;94739.44;;;15.01;83.76